Elderon, Wisconsin
Current Conditions -  °F | °C
As of 12:15 AM on Wednesday 26 Nov 2014 (Local Time) from KCWA Reporting Station
Overcast Overcast  
Wind Chill: 14°   Ceiling: 5000
Heat Index: 14°   Visibility: 7mi
Dew Point: 12°   Wind: 0mph
Humidity: 93%   Direction: NA
Pressure: 30.11"   Gusts: NA
Location:  44.78°N, 89.24°W
Report Text: KCWA 260615Z AUTO 00000KT 7SM OVC050 M10/M11 A3011 RMK AO2
Loading
Personal Weather Stations






























Interactive Weather Map New forecast layout! Learn more

10-Day Weather Forecast

Advertisements
Track Severe Weather on mobile